Buoy 48770

sailwx.info

Track history (hours):
 
Tides and Currents Weather Stations Pressure Air Temp Water Temp Dewpoint Dewpoint Depression Visibility Wind Speed Wind Dir Waves Ship Positions

Drifting buoy 48770

Last reported at 2018-Apr-23 13:02 UTC. Time now 2018-Apr-23 13:45 UTC.
Position N 77°51' W 016°07'.

Barometer 1013.7 mb

Date/timePositionNaut miles runAvg speedWind from/ knotsBaromVisibWave heightAir tempDewpointWater temp
2018-Apr-23 13:02N 77°51' W 016°07'0 0.0 1013.7
2018-Apr-23 13:00N 77°51' W 016°07'0 0.0 1013.7 -8.9
2018-Apr-23 12:05N 77°51' W 016°07'0 0.0 1013.8
2018-Apr-23 12:00N 77°51' W 016°07'0 0.0 1013.8 -8.9
2018-Apr-23 11:00N 77°51' W 016°07'0 0.0 1013.9 -8.9
2018-Apr-23 10:00N 77°51' W 016°07'0 0.0 1014.0 -8.9
2018-Apr-23 09:05N 77°51' W 016°07'0 0.0 1013.8
2018-Apr-23 09:00N 77°51' W 016°07'0 0.0 1013.8 -8.9
2018-Apr-23 08:05N 77°51' W 016°07'0 0.0 1013.7
2018-Apr-23 08:00N 77°51' W 016°07'0 0.0 1013.7 -8.9
2018-Apr-23 07:01N 77°51' W 016°07'0 0.0 1013.6
2018-Apr-23 07:00N 77°51' W 016°07'0 0.0 1013.6 -8.9
2018-Apr-23 06:05N 77°51' W 016°07'0 0.0 1013.6
2018-Apr-23 06:00N 77°51' W 016°07'0 0.0 1013.6 -8.9
2018-Apr-23 05:05N 77°51' W 016°07'0 0.0 1013.4
2018-Apr-23 05:00N 77°51' W 016°07'0 0.0 1013.4 -8.9
2018-Apr-23 03:05N 77°51' W 016°07'0 0.0 1013.4
2018-Apr-23 03:00N 77°51' W 016°07'0 0.0 1013.4 -9.0
2018-Apr-22 22:00N 77°51' W 016°07'0 0.0 1014.4 -9.0
2018-Apr-22 21:01N 77°51' W 016°07'0 0.0 1014.5
2018-Apr-22 21:00N 77°51' W 016°07'0 0.0 1014.5 -9.0
2018-Apr-22 19:05N 77°51' W 016°07'0 0.0 1014.9
2018-Apr-22 19:00N 77°51' W 016°07'0 0.0 1014.9 -9.0
2018-Apr-22 17:05N 77°51' W 016°07'0 0.0 1015.4
2018-Apr-22 17:00N 77°51' W 016°07'0 0.0 1015.4 -9.0
2018-Apr-22 16:05N 77°51' W 016°07'0 0.0 1015.3
2018-Apr-22 16:00N 77°51' W 016°07'0 0.0 1015.3 -9.0
2018-Apr-22 15:05N 77°51' W 016°07'0 0.0 1015.6
2018-Apr-22 15:00N 77°51' W 016°07'0 0.0 1015.6 -9.0
2018-Apr-22 14:05N 77°51' W 016°07'0 0.0 1015.5
2018-Apr-22 14:00N 77°51' W 016°07'0 0.0 1015.5 -9.0
2018-Apr-22 13:05N 77°51' W 016°07'0 0.0 1015.8
2018-Apr-22 13:00N 77°51' W 016°07'0 0.0 1015.8 -9.0
2018-Apr-22 12:01N 77°51' W 016°07'0 0.0 1016.2
2018-Apr-22 12:00N 77°51' W 016°07'0 0.0 1016.2 -9.0
2018-Apr-22 10:01N 77°51' W 016°07'0 0.0 1015.4
2018-Apr-22 10:00N 77°51' W 016°07'0 0.0 1015.4 -9.1
2018-Apr-22 08:05N 77°51' W 016°07'1 7.2 1014.7
2018-Apr-22 08:00N 77°52' W 016°07'1 0.3 1014.7 -9.1
2018-Apr-22 06:01N 77°51' W 016°07'0 0.0 1014.5
2018-Apr-22 06:00N 77°51' W 016°07'0 0.0 1014.5 -9.1
2018-Apr-22 04:05N 77°51' W 016°07'1 7.2 1014.3
2018-Apr-22 04:00N 77°52' W 016°07'1 0.2 1014.3 -9.1
2018-Apr-22 00:00N 77°51' W 016°07'0 0.0 1013.9 -9.1
2018-Apr-21 21:05N 77°51' W 016°07'1 7.2 1012.6
2018-Apr-21 21:00N 77°52' W 016°07'0 0.0 1012.6 -9.1
2018-Apr-21 20:00N 77°52' W 016°07'1 0.6 1012.4 -9.1
2018-Apr-21 19:01N 77°51' W 016°07'136.0 1012.1
2018-Apr-21 19:00N 77°52' W 016°07'1 0.7 1012.1 -9.1
2018-Apr-21 18:05N 77°51' W 016°07'1 7.2 1012.0
2018-Apr-21 18:00N 77°52' W 016°07'0 0.0 1012.0 -9.1
2018-Apr-21 16:00N 77°52' W 016°07'1 0.7 1011.7 -9.1
2018-Apr-21 15:05N 77°51' W 016°07'1 7.2 1011.7
2018-Apr-21 15:00N 77°52' W 016°07'1 0.7 1011.7 -9.2
2018-Apr-21 14:05N 77°51' W 016°07'1 7.2 1011.6
2018-Apr-21 14:00N 77°52' W 016°07'0 0.0 1011.6 -9.2
2018-Apr-21 13:00N 77°52' W 016°07'0 0.0 1011.8 -9.2
2018-Apr-21 12:00N 77°52' W 016°07'1 0.7 1012.3 -9.2
2018-Apr-21 11:05N 77°51' W 016°07'1 7.2 1012.6
2018-Apr-21 11:00N 77°52' W 016°07'1 0.7 1012.6 -9.2
2018-Apr-21 10:06N 77°51' W 016°07'1 6.0 1012.6
2018-Apr-21 10:00N 77°52' W 016°07'0 0.0 1012.6 -9.2
2018-Apr-21 09:00N 77°52' W 016°07'1 0.2 1012.9 -9.2
2018-Apr-21 05:05N 77°51' W 016°07'1 7.2 1014.2
2018-Apr-21 05:00N 77°52' W 016°07'1 0.7 1014.2 -9.3
2018-Apr-21 04:05N 77°51' W 016°07'1 7.2 1014.5
2018-Apr-21 04:00N 77°52' W 016°07'1 0.3 1014.5 -9.3
2018-Apr-21 02:01N 77°51' W 016°07'0 0.0 1015.0
2018-Apr-21 02:00N 77°51' W 016°07'0 0.0 1015.0 -9.3
2018-Apr-21 01:05N 77°51' W 016°07'0 0.0 1015.5
2018-Apr-21 01:00N 77°51' W 016°07'0 0.0 1015.5 -9.3
2018-Apr-21 00:05N 77°51' W 016°07'0 0.0 1015.7
2018-Apr-21 00:00N 77°51' W 016°07'0 0.0 1015.7 -9.3
2018-Apr-20 20:05N 77°51' W 016°06'0 1.5 1015.7
2018-Apr-20 20:00N 77°51' W 016°07'0 0.1 1015.7 -9.4
2018-Apr-20 18:05N 77°51' W 016°06'0 0.0 1015.3
2018-Apr-20 18:00N 77°51' W 016°06'1 0.6 1015.3 -9.4
2018-Apr-20 17:00N 77°52' W 016°06'0 0.1 1015.0 -9.4
2018-Apr-20 16:00N 77°52' W 016°07'0 0.0 1014.9 -9.4
2018-Apr-20 15:05N 77°52' W 016°07'0 0.0 1015.4
2018-Apr-20 15:00N 77°52' W 016°07'0 0.0 1015.4 -9.4
2018-Apr-20 14:05N 77°52' W 016°07'0 0.0 1015.8
2018-Apr-20 14:00N 77°52' W 016°07'0 0.0 1015.8 -9.4
2018-Apr-20 13:05N 77°52' W 016°07'0 0.0 1016.5
2018-Apr-20 13:00N 77°52' W 016°07'0 0.0 1016.5 -9.4
2018-Apr-20 12:05N 77°52' W 016°07'0 0.0 1017.1
2018-Apr-20 12:00N 77°52' W 016°07'0 0.0 1017.1 -9.4
2018-Apr-20 11:01N 77°52' W 016°07'0 0.0 1017.3
2018-Apr-20 11:00N 77°52' W 016°07'0 0.0 1017.3 -9.4
2018-Apr-20 10:05N 77°52' W 016°07'0 0.0 1017.8
2018-Apr-20 10:00N 77°52' W 016°07'0 0.0 1017.8 -9.5
2018-Apr-20 09:05N 77°52' W 016°07'0 0.0 1018.3
2018-Apr-20 09:00N 77°52' W 016°07'0 0.0 1018.3 -9.5
2018-Apr-20 08:00N 77°52' W 016°07'0 0.0 1018.8 -9.5
2018-Apr-20 07:01N 77°52' W 016°07'0 0.0 1018.7
2018-Apr-20 07:00N 77°52' W 016°07'0 0.0 1018.7 -9.5
2018-Apr-20 06:05N 77°52' W 016°07'0 0.0 1019.0
2018-Apr-20 06:00N 77°52' W 016°07'0 0.0 1019.0 -9.5
2018-Apr-20 05:05N 77°52' W 016°07'0 0.0 1019.5
2018-Apr-20 05:00N 77°52' W 016°07'0 0.0 1019.5 -9.5
2018-Apr-20 04:00N 77°52' W 016°07'0 0.0 1019.7 -9.5
2018-Apr-20 03:05N 77°52' W 016°07'0 0.0 1019.9
2018-Apr-20 03:00N 77°52' W 016°07'0 0.0 1019.9 -9.5
2018-Apr-20 02:06N 77°52' W 016°07'0 0.0 1020.0
2018-Apr-20 02:00N 77°52' W 016°07'0 0.0 1020.0 -9.6
2018-Apr-20 01:05N 77°52' W 016°07'0 0.0 1020.1
2018-Apr-20 01:00N 77°52' W 016°07'0 0.0 1020.1 -9.6
2018-Apr-19 21:01N 77°52' W 016°07'0 0.0 1020.4
2018-Apr-19 21:00N 77°52' W 016°07'0 0.0 1020.4 -9.7
2018-Apr-19 19:05N 77°52' W 016°07'0 0.0 1020.6
2018-Apr-19 19:00N 77°52' W 016°07'0 0.0 1020.6 -9.7
2018-Apr-19 17:00N 77°52' W 016°07'0 0.0 1021.2 -9.7
2018-Apr-19 16:00N 77°52' W 016°07'0 0.0 1022.0 -9.7
2018-Apr-19 15:01N 77°52' W 016°07'0 0.0 1022.7
2018-Apr-19 15:00N 77°52' W 016°07'0 0.0 1022.7 -9.7
2018-Apr-19 14:00N 77°52' W 016°07'0 0.0 1023.3 -9.7
2018-Apr-19 13:00N 77°52' W 016°07'0 0.0 1024.2 -9.7
2018-Apr-19 12:00N 77°52' W 016°07'0 0.0 1024.8 -9.7
2018-Apr-19 10:00N 77°52' W 016°07'0 0.0 1026.3 -9.8
2018-Apr-19 08:00N 77°52' W 016°07'0 0.0 1026.9 -9.8
2018-Apr-19 07:00N 77°52' W 016°07'0 0.0 1027.1 -9.8
2018-Apr-19 06:00N 77°52' W 016°07'0 0.0 1027.2 -9.8
2018-Apr-19 05:05N 77°52' W 016°07'0 0.0 1027.3
2018-Apr-19 05:00N 77°52' W 016°07'0 0.0 1027.3 -9.8
2018-Apr-19 04:05N 77°52' W 016°07'0 0.0 1027.4
2018-Apr-19 04:00N 77°52' W 016°07'0 0.0 1027.4 -9.8
2018-Apr-19 00:05N 77°52' W 016°07'0 0.0 1028.2
2018-Apr-19 00:00N 77°52' W 016°07'0 0.0 1028.2 -9.8
2018-Apr-18 22:05N 77°52' W 016°07'0 0.0 1028.6
2018-Apr-18 22:00N 77°52' W 016°07'0 0.0 1028.6 -9.8
2018-Apr-18 21:05N 77°52' W 016°07'0 0.0 1028.7
2018-Apr-18 21:00N 77°52' W 016°07'0 0.0 1028.7 -9.8
2018-Apr-18 20:05N 77°52' W 016°07'0 0.0 1028.8
2018-Apr-18 20:00N 77°52' W 016°07'0 0.0 1028.8 -9.8
2018-Apr-18 19:05N 77°52' W 016°07'0 0.0 1028.8
2018-Apr-18 19:00N 77°52' W 016°07'0 0.0 1028.8 -9.8
2018-Apr-18 18:05N 77°52' W 016°07'0 0.0 1029.0
2018-Apr-18 18:00N 77°52' W 016°07'0 0.0 1029.0 -9.8
2018-Apr-18 17:00N 77°52' W 016°07'0 0.0 1029.0 -9.8
2018-Apr-18 16:00N 77°52' W 016°07'0 0.0 1029.3 -9.7
2018-Apr-18 15:05N 77°52' W 016°07'0 0.0 1029.6
2018-Apr-18 15:00N 77°52' W 016°07'0 0.0 1029.6 -9.7
2018-Apr-18 14:05N 77°52' W 016°07'0 0.0 1029.8
2018-Apr-18 14:00N 77°52' W 016°07'0 0.0 1029.8 -9.8
2018-Apr-18 13:05N 77°52' W 016°07'0 0.0 1029.8
2018-Apr-18 13:00N 77°52' W 016°07'0 0.0 1029.8 -9.8
2018-Apr-18 12:05N 77°52' W 016°07'0 0.0 1030.0
2018-Apr-18 12:00N 77°52' W 016°07'0 0.0 1030.0 -9.8
2018-Apr-18 11:05N 77°52' W 016°07'0 0.0 1030.0
2018-Apr-18 11:00N 77°52' W 016°07'0 0.0 1030.0 -9.8
2018-Apr-18 09:05N 77°52' W 016°07'0 0.0 1029.8
2018-Apr-18 09:00N 77°52' W 016°07'0 0.0 1029.8 -9.8
2018-Apr-18 07:05N 77°52' W 016°07'0 0.0 1029.5
2018-Apr-18 07:00N 77°52' W 016°07'0 0.0 1029.5 -9.8
2018-Apr-18 05:05N 77°52' W 016°07'0 0.0 1028.9
2018-Apr-18 05:00N 77°52' W 016°07'0 0.0 1028.9 -9.8
2018-Apr-18 04:05N 77°52' W 016°07'0 0.0 1028.8
2018-Apr-18 04:00N 77°52' W 016°07'0 0.0 1028.8 -9.8
2018-Apr-18 02:05N 77°52' W 016°07'0 0.0 1028.4
2018-Apr-18 02:00N 77°52' W 016°07'0 0.0 1028.4 -9.8
2018-Apr-18 01:05N 77°52' W 016°07'0 0.0 1028.3
2018-Apr-18 01:00N 77°52' W 016°07'0 0.0 1028.3 -9.8
2018-Apr-18 00:06N 77°52' W 016°07'0 0.0 1028.2
2018-Apr-18 00:00N 77°52' W 016°07'0 0.0 1028.2 -9.8
2018-Apr-17 23:05N 77°52' W 016°07'0 0.0 1027.9
2018-Apr-17 23:00N 77°52' W 016°07'0 0.0 1027.9 -9.7
2018-Apr-17 20:06N 77°52' W 016°07'0 0.0 1027.1
2018-Apr-17 20:00N 77°52' W 016°07'0 0.0 1027.1 -9.7
2018-Apr-17 19:05N 77°52' W 016°07'0 0.0 1026.9
2018-Apr-17 19:00N 77°52' W 016°07'0 0.0 1026.9 -9.7
2018-Apr-17 18:05N 77°52' W 016°07'0 0.0 1026.8
2018-Apr-17 18:00N 77°52' W 016°07'0 0.0 1026.8 -9.7
2018-Apr-17 17:00N 77°52' W 016°07'0 0.0 1026.7 -9.7
2018-Apr-17 16:05N 77°52' W 016°07'0 0.0 1026.4
2018-Apr-17 16:00N 77°52' W 016°07'0 0.0 1026.4 -9.7
2018-Apr-17 15:05N 77°52' W 016°07'0 0.0 1026.4
2018-Apr-17 15:00N 77°52' W 016°07'0 0.0 1026.4 -9.6
2018-Apr-17 14:05N 77°52' W 016°07'0 0.0 1026.6
2018-Apr-17 14:00N 77°52' W 016°07'0 0.0 1026.6 -9.6
2018-Apr-17 12:00N 77°52' W 016°07'0 0.0 1026.5 -9.6
2018-Apr-17 11:05N 77°52' W 016°07'0 0.0 1026.5
2018-Apr-17 11:00N 77°52' W 016°07'0 0.0 1026.5 -9.6
2018-Apr-17 10:05N 77°52' W 016°07'0 0.0 1026.6
2018-Apr-17 10:00N 77°52' W 016°07'0 0.0 1026.6 -9.7
2018-Apr-17 09:01N 77°52' W 016°07'0 0.0 1026.6
2018-Apr-17 09:00N 77°52' W 016°07'0 0.0 1026.6 -9.7
2018-Apr-17 08:05N 77°52' W 016°07'0 0.0 1026.2
2018-Apr-17 08:00N 77°52' W 016°07'0 0.0 1026.2 -9.7
2018-Apr-17 07:05N 77°52' W 016°07'0 0.0 1026.0
2018-Apr-17 07:00N 77°52' W 016°07'0 0.0 1026.0 -9.7
2018-Apr-17 06:00N 77°52' W 016°07'0 0.0 1025.6 -9.7
2018-Apr-17 05:05N 77°52' W 016°07'0 0.0 1025.6
2018-Apr-17 05:00N 77°52' W 016°07'0 0.0 1025.6 -9.7
2018-Apr-17 04:05N 77°52' W 016°07'0 0.0 1025.6
2018-Apr-17 04:00N 77°52' W 016°07'0 0.0 1025.6 -9.7
2018-Apr-17 03:00N 77°52' W 016°07'0 0.0 1025.4 -9.7
2018-Apr-16 21:05N 77°52' W 016°07'0 0.0 1023.7
2018-Apr-16 21:00N 77°52' W 016°07'0 0.0 1023.7 -9.8
2018-Apr-16 19:05N 77°52' W 016°07'0 0.0 1022.8
2018-Apr-16 19:00N 77°52' W 016°07'0 0.0 1022.8 -9.8
2018-Apr-16 18:05N 77°52' W 016°07'0 0.0 1022.2
2018-Apr-16 18:00N 77°52' W 016°07'0 0.0 1022.2 -9.8
2018-Apr-16 17:00N 77°52' W 016°07'0 0.0 1021.5 -9.8
2018-Apr-16 16:05N 77°52' W 016°07'0 0.0 1021.1
2018-Apr-16 16:00N 77°52' W 016°07'0 0.0 1021.1 -9.8
2018-Apr-16 15:05N 77°52' W 016°07'0 0.0 1020.5
2018-Apr-16 15:00N 77°52' W 016°07'0 0.0 1020.5 -9.8
2018-Apr-16 14:00N 77°52' W 016°07'0 0.0 1019.5
2018-Apr-16 13:00N 77°52' W 016°07'0 0.0 1018.6 -9.8
2018-Apr-16 12:05N 77°52' W 016°07'0 0.0 1017.6
2018-Apr-16 12:00N 77°52' W 016°07'0 0.0 1017.6 -9.8
2018-Apr-16 11:05N 77°52' W 016°07'0 0.0 1016.9
2018-Apr-16 11:00N 77°52' W 016°07'0 0.0 1016.9 -9.9
2018-Apr-16 10:00N 77°52' W 016°07'0 0.0 1015.8 -9.9
2018-Apr-16 08:01N 77°52' W 016°07'0 0.0 1013.5
2018-Apr-16 08:00N 77°52' W 016°07'0 0.0 1013.5 -9.9
2018-Apr-16 07:05N 77°52' W 016°07'0 0.0 1012.3
2018-Apr-16 07:00N 77°52' W 016°07'0 0.0 1012.3 -9.9
2018-Apr-16 06:05N 77°52' W 016°07'0 0.0 1011.8
2018-Apr-16 06:00N 77°52' W 016°07'0 0.0 1011.8 -9.9
2018-Apr-16 05:00N 77°52' W 016°07'0 0.0 1011.3 -9.9
2018-Apr-16 04:01N 77°52' W 016°07'0 0.0 1010.7
2018-Apr-16 04:00N 77°52' W 016°07'0 0.0 1010.7 -10.0
2018-Apr-16 00:00N 77°52' W 016°07'0 0.0 1009.0 -10.0
2018-Apr-15 22:05N 77°52' W 016°07'0 0.0 1008.4
2018-Apr-15 22:00N 77°52' W 016°07'0 0.0 1008.4 -10.0
2018-Apr-15 21:05N 77°52' W 016°07'0 0.0 1008.3
2018-Apr-15 21:00N 77°52' W 016°07'0 0.0 1008.3 -10.0
2018-Apr-15 20:05N 77°52' W 016°07'0 0.0 1007.8
2018-Apr-15 20:00N 77°52' W 016°07'0 0.0 1007.8 -10.0
2018-Apr-15 19:05N 77°52' W 016°07'0 0.0 1007.8
2018-Apr-15 19:00N 77°52' W 016°07'0 0.0 1007.8 -10.0
2018-Apr-15 18:05N 77°52' W 016°07'0 0.0 1007.7
2018-Apr-15 18:00N 77°52' W 016°07'0 0.0 1007.7 -10.1
2018-Apr-15 17:00N 77°52' W 016°07'0 0.0 1007.7
2018-Apr-15 16:05N 77°52' W 016°07'0 0.0 1007.7
2018-Apr-15 16:00N 77°52' W 016°07'0 0.0 1007.7 -10.1
2018-Apr-15 15:05N 77°52' W 016°07'0 0.0 1008.0
2018-Apr-15 15:00N 77°52' W 016°07'0 0.0 1008.0 -10.1
2018-Apr-15 13:05N 77°52' W 016°07'0 0.0 1008.8
2018-Apr-15 13:00N 77°52' W 016°07'0 0.0 1008.8 -10.1
2018-Apr-15 12:00N 77°52' W 016°07'0 0.0 1009.1 -10.1
2018-Apr-15 11:05N 77°52' W 016°07'0 0.0 1009.1
2018-Apr-15 11:00N 77°52' W 016°07'0 0.0 1009.1 -10.1
2018-Apr-15 09:05N 77°52' W 016°07'0 0.0 1009.5
2018-Apr-15 09:00N 77°52' W 016°07'0 0.0 1009.5 -10.2
2018-Apr-15 07:00N 77°52' W 016°07'0 0.0 1010.0 -10.2
2018-Apr-15 05:00N 77°52' W 016°07'0 0.0 1011.6 -10.2
2018-Apr-15 04:05N 77°52' W 016°07'0 0.0 1012.5
2018-Apr-15 04:00N 77°52' W 016°07'0 0.0 1012.5 -10.2
2018-Apr-15 01:05N 77°52' W 016°07'0 0.0 1014.7
2018-Apr-15 01:00N 77°52' W 016°07'0 0.0 1014.7 -10.3
2018-Apr-15 00:01N 77°52' W 016°07'0 0.0 1015.7
2018-Apr-15 00:00N 77°52' W 016°07'0 0.0 1015.7 -10.3
2018-Apr-14 23:05N 77°52' W 016°07'0 0.0 1016.5
2018-Apr-14 23:00N 77°52' W 016°07'0 0.0 1016.5 -10.3
2018-Apr-13 16:05N 77°52' W 016°07'0 0.0 1016.9
2018-Apr-13 16:00N 77°52' W 016°07'0 0.0 1016.9 -10.4
2018-Apr-13 15:01N 77°52' W 016°07'0 0.0 1017.3
2018-Apr-13 15:00N 77°52' W 016°07'0 0.0 1017.3 -10.4
2018-Apr-13 14:05N 77°52' W 016°07'0 0.0 1017.3
2018-Apr-13 14:00N 77°52' W 016°07'0 0.0 1017.3 -10.4
2018-Apr-13 13:05N 77°52' W 016°07'   1017.5
Track history (hours):
 
Tides and Currents Weather Stations Pressure Air Temp Water Temp Dewpoint Dewpoint Depression Visibility Wind Speed Wind Dir Waves Ship Positions

Drifting buoy 48770

Last reported at 2018-Apr-23 13:02 UTC. Time now 2018-Apr-23 13:45 UTC.
Position N 77°51' W 016°07'.

Barometer 1013.7 mb

Date/timePositionNaut miles runAvg speedWind from/ knotsBaromVisibWave heightAir tempDewpointWater temp
2018-Apr-23 13:02N 77°51' W 016°07'0 0.0 1013.7
2018-Apr-23 13:00N 77°51' W 016°07'0 0.0 1013.7 -8.9
2018-Apr-23 12:05N 77°51' W 016°07'0 0.0 1013.8
2018-Apr-23 12:00N 77°51' W 016°07'0 0.0 1013.8 -8.9
2018-Apr-23 11:00N 77°51' W 016°07'0 0.0 1013.9 -8.9
2018-Apr-23 10:00N 77°51' W 016°07'0 0.0 1014.0 -8.9
2018-Apr-23 09:05N 77°51' W 016°07'0 0.0 1013.8
2018-Apr-23 09:00N 77°51' W 016°07'0 0.0 1013.8 -8.9
2018-Apr-23 08:05N 77°51' W 016°07'0 0.0 1013.7
2018-Apr-23 08:00N 77°51' W 016°07'0 0.0 1013.7 -8.9
2018-Apr-23 07:01N 77°51' W 016°07'0 0.0 1013.6
2018-Apr-23 07:00N 77°51' W 016°07'0 0.0 1013.6 -8.9
2018-Apr-23 06:05N 77°51' W 016°07'0 0.0 1013.6
2018-Apr-23 06:00N 77°51' W 016°07'0 0.0 1013.6 -8.9
2018-Apr-23 05:05N 77°51' W 016°07'0 0.0 1013.4
2018-Apr-23 05:00N 77°51' W 016°07'0 0.0 1013.4 -8.9
2018-Apr-23 03:05N 77°51' W 016°07'0 0.0 1013.4
2018-Apr-23 03:00N 77°51' W 016°07'0 0.0 1013.4 -9.0
2018-Apr-22 22:00N 77°51' W 016°07'0 0.0 1014.4 -9.0
2018-Apr-22 21:01N 77°51' W 016°07'0 0.0 1014.5
2018-Apr-22 21:00N 77°51' W 016°07'0 0.0 1014.5 -9.0
2018-Apr-22 19:05N 77°51' W 016°07'0 0.0 1014.9
2018-Apr-22 19:00N 77°51' W 016°07'0 0.0 1014.9 -9.0
2018-Apr-22 17:05N 77°51' W 016°07'0 0.0 1015.4
2018-Apr-22 17:00N 77°51' W 016°07'0 0.0 1015.4 -9.0
2018-Apr-22 16:05N 77°51' W 016°07'0 0.0 1015.3
2018-Apr-22 16:00N 77°51' W 016°07'0 0.0 1015.3 -9.0
2018-Apr-22 15:05N 77°51' W 016°07'0 0.0 1015.6
2018-Apr-22 15:00N 77°51' W 016°07'0 0.0 1015.6 -9.0
2018-Apr-22 14:05N 77°51' W 016°07'0 0.0 1015.5
2018-Apr-22 14:00N 77°51' W 016°07'0 0.0 1015.5 -9.0
2018-Apr-22 13:05N 77°51' W 016°07'0 0.0 1015.8
2018-Apr-22 13:00N 77°51' W 016°07'0 0.0 1015.8 -9.0
2018-Apr-22 12:01N 77°51' W 016°07'0 0.0 1016.2
2018-Apr-22 12:00N 77°51' W 016°07'0 0.0 1016.2 -9.0
2018-Apr-22 10:01N 77°51' W 016°07'0 0.0 1015.4
2018-Apr-22 10:00N 77°51' W 016°07'0 0.0 1015.4 -9.1
2018-Apr-22 08:05N 77°51' W 016°07'1 7.2 1014.7
2018-Apr-22 08:00N 77°52' W 016°07'1 0.3 1014.7 -9.1
2018-Apr-22 06:01N 77°51' W 016°07'0 0.0 1014.5
2018-Apr-22 06:00N 77°51' W 016°07'0 0.0 1014.5 -9.1
2018-Apr-22 04:05N 77°51' W 016°07'1 7.2 1014.3
2018-Apr-22 04:00N 77°52' W 016°07'1 0.2 1014.3 -9.1
2018-Apr-22 00:00N 77°51' W 016°07'0 0.0 1013.9 -9.1
2018-Apr-21 21:05N 77°51' W 016°07'1 7.2 1012.6
2018-Apr-21 21:00N 77°52' W 016°07'0 0.0 1012.6 -9.1
2018-Apr-21 20:00N 77°52' W 016°07'1 0.6 1012.4 -9.1
2018-Apr-21 19:01N 77°51' W 016°07'136.0 1012.1
2018-Apr-21 19:00N 77°52' W 016°07'1 0.7 1012.1 -9.1
2018-Apr-21 18:05N 77°51' W 016°07'1 7.2 1012.0
2018-Apr-21 18:00N 77°52' W 016°07'0 0.0 1012.0 -9.1
2018-Apr-21 16:00N 77°52' W 016°07'1 0.7 1011.7 -9.1
2018-Apr-21 15:05N 77°51' W 016°07'1 7.2 1011.7
2018-Apr-21 15:00N 77°52' W 016°07'1 0.7 1011.7 -9.2
2018-Apr-21 14:05N 77°51' W 016°07'1 7.2 1011.6
2018-Apr-21 14:00N 77°52' W 016°07'0 0.0 1011.6 -9.2
2018-Apr-21 13:00N 77°52' W 016°07'0 0.0 1011.8 -9.2
2018-Apr-21 12:00N 77°52' W 016°07'1 0.7 1012.3 -9.2
2018-Apr-21 11:05N 77°51' W 016°07'1 7.2 1012.6
2018-Apr-21 11:00N 77°52' W 016°07'1 0.7 1012.6 -9.2
2018-Apr-21 10:06N 77°51' W 016°07'1 6.0 1012.6
2018-Apr-21 10:00N 77°52' W 016°07'0 0.0 1012.6 -9.2
2018-Apr-21 09:00N 77°52' W 016°07'1 0.2 1012.9 -9.2
2018-Apr-21 05:05N 77°51' W 016°07'1 7.2 1014.2
2018-Apr-21 05:00N 77°52' W 016°07'1 0.7 1014.2 -9.3
2018-Apr-21 04:05N 77°51' W 016°07'1 7.2 1014.5
2018-Apr-21 04:00N 77°52' W 016°07'1 0.3 1014.5 -9.3
2018-Apr-21 02:01N 77°51' W 016°07'0 0.0 1015.0
2018-Apr-21 02:00N 77°51' W 016°07'0 0.0 1015.0 -9.3
2018-Apr-21 01:05N 77°51' W 016°07'0 0.0 1015.5
2018-Apr-21 01:00N 77°51' W 016°07'0 0.0 1015.5 -9.3
2018-Apr-21 00:05N 77°51' W 016°07'0 0.0 1015.7
2018-Apr-21 00:00N 77°51' W 016°07'0 0.0 1015.7 -9.3
2018-Apr-20 20:05N 77°51' W 016°06'0 1.5 1015.7
2018-Apr-20 20:00N 77°51' W 016°07'0 0.1 1015.7 -9.4
2018-Apr-20 18:05N 77°51' W 016°06'0 0.0 1015.3
2018-Apr-20 18:00N 77°51' W 016°06'1 0.6 1015.3 -9.4
2018-Apr-20 17:00N 77°52' W 016°06'0 0.1 1015.0 -9.4
2018-Apr-20 16:00N 77°52' W 016°07'0 0.0 1014.9 -9.4
2018-Apr-20 15:05N 77°52' W 016°07'0 0.0 1015.4
2018-Apr-20 15:00N 77°52' W 016°07'0 0.0 1015.4 -9.4
2018-Apr-20 14:05N 77°52' W 016°07'0 0.0 1015.8
2018-Apr-20 14:00N 77°52' W 016°07'0 0.0 1015.8 -9.4
2018-Apr-20 13:05N 77°52' W 016°07'0 0.0 1016.5
2018-Apr-20 13:00N 77°52' W 016°07'0 0.0 1016.5 -9.4
2018-Apr-20 12:05N 77°52' W 016°07'0 0.0 1017.1
2018-Apr-20 12:00N 77°52' W 016°07'0 0.0 1017.1 -9.4
2018-Apr-20 11:01N 77°52' W 016°07'0 0.0 1017.3
2018-Apr-20 11:00N 77°52' W 016°07'0 0.0 1017.3 -9.4
2018-Apr-20 10:05N 77°52' W 016°07'0 0.0 1017.8
2018-Apr-20 10:00N 77°52' W 016°07'0 0.0 1017.8 -9.5
2018-Apr-20 09:05N 77°52' W 016°07'0 0.0 1018.3
2018-Apr-20 09:00N 77°52' W 016°07'0 0.0 1018.3 -9.5
2018-Apr-20 08:00N 77°52' W 016°07'0 0.0 1018.8 -9.5
2018-Apr-20 07:01N 77°52' W 016°07'0 0.0 1018.7
2018-Apr-20 07:00N 77°52' W 016°07'0 0.0 1018.7 -9.5
2018-Apr-20 06:05N 77°52' W 016°07'0 0.0 1019.0
2018-Apr-20 06:00N 77°52' W 016°07'0 0.0 1019.0 -9.5
2018-Apr-20 05:05N 77°52' W 016°07'0 0.0 1019.5
2018-Apr-20 05:00N 77°52' W 016°07'0 0.0 1019.5 -9.5
2018-Apr-20 04:00N 77°52' W 016°07'0 0.0 1019.7 -9.5
2018-Apr-20 03:05N 77°52' W 016°07'0 0.0 1019.9
2018-Apr-20 03:00N 77°52' W 016°07'0 0.0 1019.9 -9.5
2018-Apr-20 02:06N 77°52' W 016°07'0 0.0 1020.0
2018-Apr-20 02:00N 77°52' W 016°07'0 0.0 1020.0 -9.6
2018-Apr-20 01:05N 77°52' W 016°07'0 0.0 1020.1
2018-Apr-20 01:00N 77°52' W 016°07'0 0.0 1020.1 -9.6
2018-Apr-19 21:01N 77°52' W 016°07'0 0.0 1020.4
2018-Apr-19 21:00N 77°52' W 016°07'0 0.0 1020.4 -9.7
2018-Apr-19 19:05N 77°52' W 016°07'0 0.0 1020.6
2018-Apr-19 19:00N 77°52' W 016°07'0 0.0 1020.6 -9.7
2018-Apr-19 17:00N 77°52' W 016°07'0 0.0 1021.2 -9.7
2018-Apr-19 16:00N 77°52' W 016°07'0 0.0 1022.0 -9.7
2018-Apr-19 15:01N 77°52' W 016°07'0 0.0 1022.7
2018-Apr-19 15:00N 77°52' W 016°07'0 0.0 1022.7 -9.7
2018-Apr-19 14:00N 77°52' W 016°07'0 0.0 1023.3 -9.7
2018-Apr-19 13:00N 77°52' W 016°07'0 0.0 1024.2 -9.7
2018-Apr-19 12:00N 77°52' W 016°07'0 0.0 1024.8 -9.7
2018-Apr-19 10:00N 77°52' W 016°07'0 0.0 1026.3 -9.8
2018-Apr-19 08:00N 77°52' W 016°07'0 0.0 1026.9 -9.8
2018-Apr-19 07:00N 77°52' W 016°07'0 0.0 1027.1 -9.8
2018-Apr-19 06:00N 77°52' W 016°07'0 0.0 1027.2 -9.8
2018-Apr-19 05:05N 77°52' W 016°07'0 0.0 1027.3
2018-Apr-19 05:00N 77°52' W 016°07'0 0.0 1027.3 -9.8
2018-Apr-19 04:05N 77°52' W 016°07'0 0.0 1027.4
2018-Apr-19 04:00N 77°52' W 016°07'0 0.0 1027.4 -9.8
2018-Apr-19 00:05N 77°52' W 016°07'0 0.0 1028.2
2018-Apr-19 00:00N 77°52' W 016°07'0 0.0 1028.2 -9.8
2018-Apr-18 22:05N 77°52' W 016°07'0 0.0 1028.6
2018-Apr-18 22:00N 77°52' W 016°07'0 0.0 1028.6 -9.8
2018-Apr-18 21:05N 77°52' W 016°07'0 0.0 1028.7
2018-Apr-18 21:00N 77°52' W 016°07'0 0.0 1028.7 -9.8
2018-Apr-18 20:05N 77°52' W 016°07'0 0.0 1028.8
2018-Apr-18 20:00N 77°52' W 016°07'0 0.0 1028.8 -9.8
2018-Apr-18 19:05N 77°52' W 016°07'0 0.0 1028.8
2018-Apr-18 19:00N 77°52' W 016°07'0 0.0 1028.8 -9.8
2018-Apr-18 18:05N 77°52' W 016°07'0 0.0 1029.0
2018-Apr-18 18:00N 77°52' W 016°07'0 0.0 1029.0 -9.8
2018-Apr-18 17:00N 77°52' W 016°07'0 0.0 1029.0 -9.8
2018-Apr-18 16:00N 77°52' W 016°07'0 0.0 1029.3 -9.7
2018-Apr-18 15:05N 77°52' W 016°07'0 0.0 1029.6
2018-Apr-18 15:00N 77°52' W 016°07'0 0.0 1029.6 -9.7
2018-Apr-18 14:05N 77°52' W 016°07'0 0.0 1029.8
2018-Apr-18 14:00N 77°52' W 016°07'0 0.0 1029.8 -9.8
2018-Apr-18 13:05N 77°52' W 016°07'0 0.0 1029.8
2018-Apr-18 13:00N 77°52' W 016°07'0 0.0 1029.8 -9.8
2018-Apr-18 12:05N 77°52' W 016°07'0 0.0 1030.0
2018-Apr-18 12:00N 77°52' W 016°07'0 0.0 1030.0 -9.8
2018-Apr-18 11:05N 77°52' W 016°07'0 0.0 1030.0
2018-Apr-18 11:00N 77°52' W 016°07'0 0.0 1030.0 -9.8
2018-Apr-18 09:05N 77°52' W 016°07'0 0.0 1029.8
2018-Apr-18 09:00N 77°52' W 016°07'0 0.0 1029.8 -9.8
2018-Apr-18 07:05N 77°52' W 016°07'0 0.0 1029.5
2018-Apr-18 07:00N 77°52' W 016°07'0 0.0 1029.5 -9.8
2018-Apr-18 05:05N 77°52' W 016°07'0 0.0 1028.9
2018-Apr-18 05:00N 77°52' W 016°07'0 0.0 1028.9 -9.8
2018-Apr-18 04:05N 77°52' W 016°07'0 0.0 1028.8
2018-Apr-18 04:00N 77°52' W 016°07'0 0.0 1028.8 -9.8
2018-Apr-18 02:05N 77°52' W 016°07'0 0.0 1028.4
2018-Apr-18 02:00N 77°52' W 016°07'0 0.0 1028.4 -9.8
2018-Apr-18 01:05N 77°52' W 016°07'0 0.0 1028.3
2018-Apr-18 01:00N 77°52' W 016°07'0 0.0 1028.3 -9.8
2018-Apr-18 00:06N 77°52' W 016°07'0 0.0 1028.2
2018-Apr-18 00:00N 77°52' W 016°07'0 0.0 1028.2 -9.8
2018-Apr-17 23:05N 77°52' W 016°07'0 0.0 1027.9
2018-Apr-17 23:00N 77°52' W 016°07'0 0.0 1027.9 -9.7
2018-Apr-17 20:06N 77°52' W 016°07'0 0.0 1027.1
2018-Apr-17 20:00N 77°52' W 016°07'0 0.0 1027.1 -9.7
2018-Apr-17 19:05N 77°52' W 016°07'0 0.0 1026.9
2018-Apr-17 19:00N 77°52' W 016°07'0 0.0 1026.9 -9.7
2018-Apr-17 18:05N 77°52' W 016°07'0 0.0 1026.8
2018-Apr-17 18:00N 77°52' W 016°07'0 0.0 1026.8 -9.7
2018-Apr-17 17:00N 77°52' W 016°07'0 0.0 1026.7 -9.7
2018-Apr-17 16:05N 77°52' W 016°07'0 0.0 1026.4
2018-Apr-17 16:00N 77°52' W 016°07'0 0.0 1026.4 -9.7
2018-Apr-17 15:05N 77°52' W 016°07'0 0.0 1026.4
2018-Apr-17 15:00N 77°52' W 016°07'0 0.0 1026.4 -9.6
2018-Apr-17 14:05N 77°52' W 016°07'0 0.0 1026.6
2018-Apr-17 14:00N 77°52' W 016°07'0 0.0 1026.6 -9.6
2018-Apr-17 12:00N 77°52' W 016°07'0 0.0 1026.5 -9.6
2018-Apr-17 11:05N 77°52' W 016°07'0 0.0 1026.5
2018-Apr-17 11:00N 77°52' W 016°07'0 0.0 1026.5 -9.6
2018-Apr-17 10:05N 77°52' W 016°07'0 0.0 1026.6
2018-Apr-17 10:00N 77°52' W 016°07'0 0.0 1026.6 -9.7
2018-Apr-17 09:01N 77°52' W 016°07'0 0.0 1026.6
2018-Apr-17 09:00N 77°52' W 016°07'0 0.0 1026.6 -9.7
2018-Apr-17 08:05N 77°52' W 016°07'0 0.0 1026.2
2018-Apr-17 08:00N 77°52' W 016°07'0 0.0 1026.2 -9.7
2018-Apr-17 07:05N 77°52' W 016°07'0 0.0 1026.0
2018-Apr-17 07:00N 77°52' W 016°07'0 0.0 1026.0 -9.7
2018-Apr-17 06:00N 77°52' W 016°07'0 0.0 1025.6 -9.7
2018-Apr-17 05:05N 77°52' W 016°07'0 0.0 1025.6
2018-Apr-17 05:00N 77°52' W 016°07'0 0.0 1025.6 -9.7
2018-Apr-17 04:05N 77°52' W 016°07'0 0.0 1025.6
2018-Apr-17 04:00N 77°52' W 016°07'0 0.0 1025.6 -9.7
2018-Apr-17 03:00N 77°52' W 016°07'0 0.0 1025.4 -9.7
2018-Apr-16 21:05N 77°52' W 016°07'0 0.0 1023.7
2018-Apr-16 21:00N 77°52' W 016°07'0 0.0 1023.7 -9.8
2018-Apr-16 19:05N 77°52' W 016°07'0 0.0 1022.8
2018-Apr-16 19:00N 77°52' W 016°07'0 0.0 1022.8 -9.8
2018-Apr-16 18:05N 77°52' W 016°07'0 0.0 1022.2
2018-Apr-16 18:00N 77°52' W 016°07'0 0.0 1022.2 -9.8
2018-Apr-16 17:00N 77°52' W 016°07'0 0.0 1021.5 -9.8
2018-Apr-16 16:05N 77°52' W 016°07'0 0.0 1021.1
2018-Apr-16 16:00N 77°52' W 016°07'0 0.0 1021.1 -9.8
2018-Apr-16 15:05N 77°52' W 016°07'0 0.0 1020.5
2018-Apr-16 15:00N 77°52' W 016°07'0 0.0 1020.5 -9.8
2018-Apr-16 14:00N 77°52' W 016°07'0 0.0 1019.5
2018-Apr-16 13:00N 77°52' W 016°07'0 0.0 1018.6 -9.8
2018-Apr-16 12:05N 77°52' W 016°07'0 0.0 1017.6
2018-Apr-16 12:00N 77°52' W 016°07'0 0.0 1017.6 -9.8
2018-Apr-16 11:05N 77°52' W 016°07'0 0.0 1016.9
2018-Apr-16 11:00N 77°52' W 016°07'0 0.0 1016.9 -9.9
2018-Apr-16 10:00N 77°52' W 016°07'0 0.0 1015.8 -9.9
2018-Apr-16 08:01N 77°52' W 016°07'0 0.0 1013.5
2018-Apr-16 08:00N 77°52' W 016°07'0 0.0 1013.5 -9.9
2018-Apr-16 07:05N 77°52' W 016°07'0 0.0 1012.3
2018-Apr-16 07:00N 77°52' W 016°07'0 0.0 1012.3 -9.9
2018-Apr-16 06:05N 77°52' W 016°07'0 0.0 1011.8
2018-Apr-16 06:00N 77°52' W 016°07'0 0.0 1011.8 -9.9
2018-Apr-16 05:00N 77°52' W 016°07'0 0.0 1011.3 -9.9
2018-Apr-16 04:01N 77°52' W 016°07'0 0.0 1010.7
2018-Apr-16 04:00N 77°52' W 016°07'0 0.0 1010.7 -10.0
2018-Apr-16 00:00N 77°52' W 016°07'0 0.0 1009.0 -10.0
2018-Apr-15 22:05N 77°52' W 016°07'0 0.0 1008.4
2018-Apr-15 22:00N 77°52' W 016°07'0 0.0 1008.4 -10.0
2018-Apr-15 21:05N 77°52' W 016°07'0 0.0 1008.3
2018-Apr-15 21:00N 77°52' W 016°07'0 0.0 1008.3 -10.0
2018-Apr-15 20:05N 77°52' W 016°07'0 0.0 1007.8
2018-Apr-15 20:00N 77°52' W 016°07'0 0.0 1007.8 -10.0
2018-Apr-15 19:05N 77°52' W 016°07'0 0.0 1007.8
2018-Apr-15 19:00N 77°52' W 016°07'0 0.0 1007.8 -10.0
2018-Apr-15 18:05N 77°52' W 016°07'0 0.0 1007.7
2018-Apr-15 18:00N 77°52' W 016°07'0 0.0 1007.7 -10.1
2018-Apr-15 17:00N 77°52' W 016°07'0 0.0 1007.7
2018-Apr-15 16:05N 77°52' W 016°07'0 0.0 1007.7
2018-Apr-15 16:00N 77°52' W 016°07'0 0.0 1007.7 -10.1
2018-Apr-15 15:05N 77°52' W 016°07'0 0.0 1008.0
2018-Apr-15 15:00N 77°52' W 016°07'0 0.0 1008.0 -10.1
2018-Apr-15 13:05N 77°52' W 016°07'0 0.0 1008.8
2018-Apr-15 13:00N 77°52' W 016°07'0 0.0 1008.8 -10.1
2018-Apr-15 12:00N 77°52' W 016°07'0 0.0 1009.1 -10.1
2018-Apr-15 11:05N 77°52' W 016°07'0 0.0 1009.1
2018-Apr-15 11:00N 77°52' W 016°07'0 0.0 1009.1 -10.1
2018-Apr-15 09:05N 77°52' W 016°07'0 0.0 1009.5
2018-Apr-15 09:00N 77°52' W 016°07'0 0.0 1009.5 -10.2
2018-Apr-15 07:00N 77°52' W 016°07'0 0.0 1010.0 -10.2
2018-Apr-15 05:00N 77°52' W 016°07'0 0.0 1011.6 -10.2
2018-Apr-15 04:05N 77°52' W 016°07'0 0.0 1012.5
2018-Apr-15 04:00N 77°52' W 016°07'0 0.0 1012.5 -10.2
2018-Apr-15 01:05N 77°52' W 016°07'0 0.0 1014.7
2018-Apr-15 01:00N 77°52' W 016°07'0 0.0 1014.7 -10.3
2018-Apr-15 00:01N 77°52' W 016°07'0 0.0 1015.7
2018-Apr-15 00:00N 77°52' W 016°07'0 0.0 1015.7 -10.3
2018-Apr-14 23:05N 77°52' W 016°07'0 0.0 1016.5
2018-Apr-14 23:00N 77°52' W 016°07'0 0.0 1016.5 -10.3
2018-Apr-13 16:05N 77°52' W 016°07'0 0.0 1016.9
2018-Apr-13 16:00N 77°52' W 016°07'0 0.0 1016.9 -10.4
2018-Apr-13 15:01N 77°52' W 016°07'0 0.0 1017.3
2018-Apr-13 15:00N 77°52' W 016°07'0 0.0 1017.3 -10.4
2018-Apr-13 14:05N 77°52' W 016°07'0 0.0 1017.3
2018-Apr-13 14:00N 77°52' W 016°07'0 0.0 1017.3 -10.4
2018-Apr-13 13:05N 77°52' W 016°07'   1017.5

Dump ship's entire track history